createdAt,value
2019-04-06T00:00:59.269Z,124.63
2019-04-06T00:03:27.714Z,120.07
2019-04-06T00:05:56.153Z,122.97
2019-04-06T00:08:24.597Z,125.87
2019-04-06T00:10:55.072Z,126.47
2019-04-06T00:13:23.395Z,124.53
2019-04-06T00:15:51.927Z,128.83
2019-04-06T00:18:20.451Z,126.67
2019-04-06T00:20:48.894Z,132.50
2019-04-06T00:23:17.338Z,120.87
2019-04-06T00:25:45.866Z,126.17
2019-04-06T00:28:14.390Z,134.80
2019-04-06T00:31:02.600Z,138.63
2019-04-06T00:33:32.110Z,139.43
2019-04-06T00:36:00.556Z,141.60
2019-04-06T00:38:29.082Z,126.90
2019-04-06T00:40:57.525Z,135.83
2019-04-06T00:43:25.998Z,134.40
2019-04-06T00:45:54.510Z,135.87
2019-04-06T00:48:22.955Z,130.43
2019-04-06T00:50:51.398Z,134.60
2019-04-06T00:53:19.860Z,134.10
2019-04-06T00:55:55.384Z,145.90
2019-04-06T00:58:18.929Z,126.00
2019-04-06T01:00:47.429Z,142.10
2019-04-06T01:03:15.862Z,120.80
2019-04-06T01:05:44.307Z,127.50
2019-04-06T01:08:12.838Z,134.13
2019-04-06T01:10:41.285Z,140.77
2019-04-06T01:13:09.729Z,135.47
2019-04-06T01:15:38.186Z,125.17
2019-04-06T01:18:06.635Z,130.53
2019-04-06T01:20:35.102Z,148.87
2019-04-06T01:23:03.552Z,145.53
2019-04-06T01:25:31.989Z,151.37
2019-04-06T01:28:00.431Z,145.27
2019-04-06T01:30:28.873Z,160.47
2019-04-06T01:32:57.322Z,150.57
2019-04-06T01:35:25.766Z,141.50
2019-04-06T01:37:54.222Z,156.07
2019-04-06T01:40:22.658Z,159.50
2019-04-06T01:42:51.112Z,153.97
2019-04-06T01:45:19.592Z,155.17
2019-04-06T01:47:48.079Z,153.23
2019-04-06T01:50:16.526Z,162.40
2019-04-06T01:52:44.973Z,149.43
2019-04-06T01:55:13.421Z,146.73
2019-04-06T01:57:41.873Z,155.23
2019-04-06T02:00:12.030Z,148.43
2019-04-06T02:02:42.122Z,144.27
2019-04-06T02:05:10.826Z,139.43
2019-04-06T02:07:39.283Z,141.73
2019-04-06T02:10:08.978Z,144.53
2019-04-06T02:12:37.404Z,156.67
2019-04-06T02:15:06.891Z,143.10
2019-04-06T02:17:35.410Z,134.33
2019-04-06T02:20:05.548Z,136.63
2019-04-06T02:22:34.020Z,154.47
2019-04-06T02:25:02.511Z,148.53
2019-04-06T02:27:31.011Z,142.20
2019-04-06T02:30:12.868Z,131.43
2019-04-06T02:32:59.568Z,136.33
2019-04-06T02:35:32.298Z,135.37
2019-04-06T02:38:05.134Z,141.37
2019-04-06T02:40:41.167Z,144.23
2019-04-06T02:43:14.127Z,148.73
2019-04-06T02:45:42.696Z,140.30
2019-04-06T02:48:11.197Z,125.97
2019-04-06T02:50:39.693Z,131.17
2019-04-06T02:53:08.371Z,125.93
2019-04-06T02:55:36.815Z,127.17
2019-04-06T02:58:05.241Z,127.80
2019-04-06T03:00:33.741Z,125.27
2019-04-06T03:03:02.264Z,129.47
2019-04-06T03:05:30.751Z,124.43
2019-04-06T03:07:59.201Z,129.17
2019-04-06T03:10:27.836Z,120.60
2019-04-06T03:12:56.440Z,126.63
2019-04-06T03:15:24.951Z,115.23
2019-04-06T03:17:53.450Z,111.23
2019-04-06T03:20:22.043Z,127.00
2019-04-06T03:22:50.597Z,120.13
2019-04-06T03:25:19.175Z,113.83
2019-04-06T03:27:47.820Z,121.70
2019-04-06T03:30:16.635Z,111.07
2019-04-06T03:32:45.113Z,114.00
2019-04-06T03:35:13.764Z,122.10
2019-04-06T03:37:42.192Z,113.37
2019-04-06T03:40:11.265Z,115.93
2019-04-06T03:42:39.974Z,112.43
2019-04-06T03:45:08.744Z,111.03
2019-04-06T03:47:37.181Z,107.17
2019-04-06T03:50:06.946Z,107.93
2019-04-06T03:52:35.342Z,110.77
2019-04-06T03:55:04.521Z,104.80
2019-04-06T03:57:33.035Z,107.47
2019-04-06T04:00:01.428Z,109.97
2019-04-06T04:02:29.835Z,110.73
2019-04-06T04:04:58.251Z,110.47
2019-04-06T04:07:26.655Z,111.27
2019-04-06T04:09:55.089Z,109.90
2019-04-06T04:12:23.684Z,105.20
2019-04-06T04:14:52.202Z,112.10
2019-04-06T04:17:20.610Z,113.70
2019-04-06T04:19:49.035Z,106.00
2019-04-06T04:22:17.443Z,115.07
2019-04-06T04:24:46.110Z,120.30
2019-04-06T04:27:27.634Z,112.27
2019-04-06T04:29:44.792Z,110.83
2019-04-06T04:32:13.463Z,119.63
2019-04-06T04:34:41.958Z,111.70
2019-04-06T04:37:10.363Z,121.90
2019-04-06T04:39:38.940Z,116.83
2019-04-06T04:42:07.448Z,115.77
2019-04-06T04:44:35.855Z,117.27
2019-04-06T04:47:04.268Z,118.90
2019-04-06T04:49:32.681Z,105.93
2019-04-06T04:52:01.090Z,103.40
2019-04-06T04:54:29.495Z,108.50
2019-04-06T04:56:57.910Z,118.93
2019-04-06T04:59:26.356Z,111.27
2019-04-06T05:01:54.984Z,121.83
2019-04-06T05:04:23.541Z,116.43
2019-04-06T05:06:52.138Z,109.17
2019-04-06T05:09:20.534Z,110.67
2019-04-06T05:11:49.167Z,120.43
2019-04-06T05:14:55.854Z,109.70
2019-04-06T05:17:24.278Z,116.37
2019-04-06T05:19:52.682Z,107.03
2019-04-06T05:22:21.094Z,112.87
2019-04-06T05:24:49.658Z,106.80
2019-04-06T05:27:18.220Z,107.17
2019-04-06T05:29:46.706Z,106.10
2019-04-06T05:32:15.111Z,109.13
2019-04-06T05:34:43.664Z,107.40
2019-04-06T05:37:12.114Z,114.20
2019-04-06T05:39:40.528Z,107.30
2019-04-06T05:42:08.943Z,101.07
2019-04-06T05:44:37.346Z,106.93
2019-04-06T05:47:05.822Z,115.83
2019-04-06T05:49:34.223Z,101.93
2019-04-06T05:52:02.813Z,101.23
2019-04-06T05:54:31.223Z,102.30
2019-04-06T05:56:59.622Z,96.03
2019-04-06T05:59:28.048Z,105.57
2019-04-06T06:01:56.707Z,104.57
2019-04-06T06:04:25.110Z,98.47
2019-04-06T06:06:53.617Z,97.50
2019-04-06T06:09:22.023Z,103.83
2019-04-06T06:11:50.435Z,107.63
2019-04-06T06:14:18.857Z,105.80
2019-04-06T06:16:47.258Z,102.63
2019-04-06T06:19:15.742Z,104.40
2019-04-06T06:21:44.174Z,93.93
2019-04-06T06:24:12.583Z,103.20
2019-04-06T06:26:41.151Z,98.83
2019-04-06T06:29:09.675Z,91.47
2019-04-06T06:31:38.083Z,95.40
2019-04-06T06:34:06.963Z,99.60
2019-04-06T06:36:35.449Z,97.80
2019-04-06T06:39:06.139Z,98.83
2019-04-06T06:41:34.536Z,116.77
2019-04-06T06:44:02.946Z,99.17
2019-04-06T06:46:31.414Z,99.03
2019-04-06T06:48:59.960Z,94.73
2019-04-06T06:51:28.653Z,88.33
2019-04-06T06:53:57.183Z,94.27
2019-04-06T06:56:25.587Z,86.67
2019-04-06T06:58:53.995Z,94.43
2019-04-06T07:01:22.405Z,94.93
2019-04-06T07:03:50.884Z,96.27
2019-04-06T07:06:19.314Z,93.07
2019-04-06T07:08:47.955Z,90.77
2019-04-06T07:11:16.350Z,89.20
2019-04-06T07:13:44.754Z,90.87
2019-04-06T07:16:13.158Z,97.73
2019-04-06T07:18:41.565Z,92.30
2019-04-06T07:21:10.161Z,88.67
2019-04-06T07:23:38.618Z,89.60
2019-04-06T07:26:07.022Z,94.17
2019-04-06T07:28:38.418Z,90.53
2019-04-06T07:31:05.732Z,85.63
2019-04-06T07:33:34.127Z,87.43
2019-04-06T07:36:02.610Z,89.10
2019-04-06T07:38:31.017Z,91.27
2019-04-06T07:40:59.437Z,85.90
2019-04-06T07:43:28.233Z,92.30
2019-04-06T07:45:56.694Z,86.93
2019-04-06T07:48:25.174Z,99.13
2019-04-06T07:50:53.600Z,87.20
2019-04-06T07:53:22.263Z,83.73
2019-04-06T07:55:50.678Z,102.17
2019-04-06T07:58:19.313Z,82.67
2019-04-06T08:00:48.164Z,81.77
2019-04-06T08:03:16.246Z,87.83
2019-04-06T08:05:44.660Z,91.70
2019-04-06T08:08:13.333Z,80.83
2019-04-06T08:10:41.698Z,81.80
2019-04-06T08:13:10.102Z,80.97
2019-04-06T08:15:38.752Z,80.30
2019-04-06T08:18:07.226Z,79.07
2019-04-06T08:20:35.641Z,80.10
2019-04-06T08:23:04.046Z,80.47
2019-04-06T08:25:32.569Z,77.37
2019-04-06T08:28:00.946Z,77.70
2019-04-06T08:30:29.367Z,73.90
2019-04-06T08:32:57.850Z,72.87
2019-04-06T08:35:26.873Z,72.00
2019-04-06T08:37:55.459Z,76.20
2019-04-06T08:40:23.870Z,78.23
2019-04-06T08:42:52.274Z,74.93
2019-04-06T08:45:20.690Z,76.30
2019-04-06T08:47:49.098Z,74.30
2019-04-06T08:50:17.913Z,74.93
2019-04-06T08:52:46.433Z,73.80
2019-04-06T08:55:14.859Z,61.17
2019-04-06T08:57:43.335Z,67.10
2019-04-06T09:00:12.295Z,69.67
2019-04-06T09:02:40.911Z,63.80
2019-04-06T09:05:09.827Z,64.43
2019-04-06T09:07:40.591Z,61.77
2019-04-06T09:10:08.702Z,69.20
2019-04-06T09:12:37.106Z,63.30
2019-04-06T09:15:07.926Z,60.97
2019-04-06T09:17:36.336Z,63.40
2019-04-06T09:20:07.135Z,62.50
2019-04-06T09:22:35.206Z,56.97
2019-04-06T09:25:04.903Z,57.30
2019-04-06T09:27:33.307Z,58.10
2019-04-06T09:30:01.768Z,59.53
2019-04-06T09:32:30.204Z,59.77
2019-04-06T09:34:58.610Z,61.67
2019-04-06T09:37:27.024Z,59.07
2019-04-06T09:39:55.459Z,59.93
2019-04-06T09:42:23.862Z,58.43
2019-04-06T09:44:56.931Z,58.07
2019-04-06T09:47:32.839Z,54.97
2019-04-06T09:50:19.015Z,58.37
2019-04-06T09:52:52.035Z,60.20
2019-04-06T09:55:24.950Z,63.93
2019-04-06T09:57:57.945Z,59.70
2019-04-06T10:00:42.482Z,57.83
2019-04-06T10:03:29.235Z,61.33
2019-04-06T10:06:08.355Z,59.00
2019-04-06T10:08:47.110Z,61.90
2019-04-06T10:11:35.631Z,56.10
2019-04-06T10:14:05.902Z,54.73
2019-04-06T10:16:54.059Z,59.93
2019-04-06T10:19:26.867Z,62.67
2019-04-06T10:21:59.739Z,62.43
2019-04-06T10:24:29.783Z,54.17
2019-04-06T10:27:02.669Z,56.20
2019-04-06T10:29:33.070Z,57.57
2019-04-06T10:32:03.569Z,58.27
2019-04-06T10:34:45.742Z,59.70
2019-04-06T10:37:15.798Z,61.10
2019-04-06T10:39:48.650Z,58.47
2019-04-06T10:42:19.919Z,61.70
2019-04-06T10:44:50.095Z,57.47
2019-04-06T10:47:26.249Z,60.80
2019-04-06T10:50:02.276Z,61.40
2019-04-06T10:52:32.418Z,57.20
2019-04-06T10:55:05.142Z,61.93
2019-04-06T10:57:41.475Z,59.30
2019-04-06T11:00:23.523Z,62.27
2019-04-06T11:02:59.035Z,56.33
2019-04-06T11:05:35.281Z,58.30
2019-04-06T11:08:21.443Z,58.40
2019-04-06T11:11:02.511Z,57.77
2019-04-06T11:13:32.335Z,53.77
2019-04-06T11:16:20.490Z,53.03
2019-04-06T11:18:55.998Z,55.70
2019-04-06T11:21:32.019Z,55.30
2019-04-06T11:24:02.067Z,51.23
2019-04-06T11:26:35.156Z,51.10
2019-04-06T11:29:05.341Z,51.13
2019-04-06T11:31:51.942Z,50.83
2019-04-06T11:34:33.950Z,48.17
2019-04-06T11:37:06.839Z,51.63
2019-04-06T11:39:39.560Z,49.07
2019-04-06T11:42:21.911Z,52.37
2019-04-06T11:44:51.973Z,53.47
2019-04-06T11:47:40.479Z,53.70
2019-04-06T11:50:16.715Z,47.43
2019-04-06T11:52:49.692Z,54.07
2019-04-06T11:55:37.875Z,51.10
2019-04-06T11:58:07.947Z,51.93
2019-04-06T12:00:38.007Z,49.33
2019-04-06T12:03:08.055Z,51.07
2019-04-06T12:05:41.216Z,49.73
2019-04-06T12:08:27.870Z,50.73
2019-04-06T12:10:57.930Z,51.60
2019-04-06T12:13:33.784Z,52.93
2019-04-06T12:16:15.631Z,48.87
2019-04-06T12:18:51.637Z,50.23
2019-04-06T12:21:21.715Z,48.63
2019-04-06T12:26:27.550Z,52.27
2019-04-06T12:29:16.933Z,53.33
2019-04-06T12:31:47.190Z,50.53
2019-04-06T12:34:33.785Z,51.27
2019-04-06T12:37:03.925Z,49.40
2019-04-06T12:39:52.267Z,51.80
2019-04-06T12:42:17.719Z,51.93
2019-04-06T12:45:04.243Z,56.40
2019-04-06T12:47:37.233Z,52.30
2019-04-06T12:50:11.195Z,56.00
2019-04-06T12:52:44.717Z,52.17
2019-04-06T12:55:30.150Z,55.13
2019-04-06T12:58:09.063Z,53.03
2019-04-06T13:00:52.693Z,48.60
2019-04-06T13:03:32.111Z,52.60
2019-04-06T13:06:14.047Z,51.70
2019-04-06T13:08:44.397Z,49.27
2019-04-06T13:11:26.644Z,51.20
2019-04-06T13:13:59.678Z,49.93
2019-04-06T13:16:32.442Z,52.53
2019-04-06T13:19:20.538Z,49.10
2019-04-06T13:21:56.438Z,51.10
2019-04-06T13:24:26.587Z,56.20
2019-04-06T13:27:02.178Z,51.50
2019-04-06T13:29:35.151Z,53.27
2019-04-06T13:32:11.137Z,50.63
2019-04-06T13:34:43.657Z,54.73
2019-04-06T13:37:19.890Z,55.13
2019-04-06T13:40:06.842Z,55.43
2019-04-06T13:42:48.879Z,52.37
2019-04-06T13:45:18.927Z,51.80
2019-04-06T13:47:52.340Z,55.73
2019-04-06T13:50:31.602Z,48.93
2019-04-06T13:53:07.889Z,50.33
2019-04-06T13:55:56.377Z,54.17
2019-04-06T13:58:29.051Z,49.33
2019-04-06T14:01:17.135Z,50.80
2019-04-06T14:03:58.164Z,52.40
2019-04-06T14:06:28.178Z,51.83
2019-04-06T14:09:04.198Z,50.47
2019-04-06T14:11:38.056Z,48.33
2019-04-06T14:14:20.511Z,46.03
2019-04-06T14:17:05.731Z,47.23
2019-04-06T14:19:47.664Z,48.77
2019-04-06T14:22:26.562Z,44.63
2019-04-06T14:25:08.619Z,45.30
2019-04-06T14:27:53.463Z,44.87
2019-04-06T14:30:42.187Z,42.10
2019-04-06T14:33:12.296Z,44.50
2019-04-06T14:36:00.468Z,44.77
2019-04-06T14:38:33.710Z,49.40
2019-04-06T14:41:20.364Z,47.43
2019-04-06T14:43:56.728Z,50.10
2019-04-06T14:46:35.878Z,92.93
2019-04-06T14:49:29.458Z,53.70
2019-04-06T14:51:59.725Z,46.77
2019-04-06T14:54:32.369Z,47.43
2019-04-06T14:57:02.530Z,50.30
2019-04-06T14:59:47.619Z,44.67
2019-04-06T15:02:34.806Z,50.13
2019-04-06T15:05:05.819Z,56.43
2019-04-06T15:07:41.630Z,45.90
2019-04-06T15:10:14.658Z,43.47
2019-04-06T15:12:44.767Z,42.90
2019-04-06T15:15:21.034Z,43.43
2019-04-06T15:17:56.881Z,44.30
2019-04-06T15:20:27.185Z,41.97
2019-04-06T15:23:13.554Z,45.43
2019-04-06T15:26:00.582Z,43.23
2019-04-06T15:28:45.687Z,43.20
2019-04-06T15:31:24.945Z,42.10
2019-04-06T15:34:07.173Z,38.63
2019-04-06T15:36:49.749Z,40.73
2019-04-06T15:39:20.264Z,40.20
2019-04-06T15:41:56.164Z,41.77
2019-04-06T15:44:37.010Z,41.73
2019-04-06T15:47:10.205Z,43.50
2019-04-06T15:49:46.379Z,38.80
2019-04-06T15:52:16.973Z,34.10
2019-04-06T15:54:47.068Z,39.33
2019-04-06T15:57:23.407Z,35.60
2019-04-06T16:00:08.511Z,38.23
2019-04-06T16:02:38.568Z,35.57
2019-04-06T16:05:21.428Z,35.30
2019-04-06T16:08:06.843Z,38.63
2019-04-06T16:10:42.491Z,38.13
2019-04-06T16:13:21.394Z,33.73
2019-04-06T16:15:51.526Z,37.43
2019-04-06T16:18:37.850Z,38.10
2019-04-06T16:21:24.079Z,40.23
2019-04-06T16:24:06.183Z,36.57
2019-04-06T16:26:48.388Z,40.23
2019-04-06T16:29:24.828Z,38.63
2019-04-06T16:32:13.915Z,37.67
2019-04-06T16:34:44.006Z,37.17
2019-04-06T16:37:30.882Z,38.40
2019-04-06T16:40:04.130Z,38.20
2019-04-06T16:42:39.870Z,42.77
2019-04-06T16:45:22.145Z,37.77
2019-04-06T16:47:52.520Z,39.57
2019-04-06T16:50:25.282Z,42.93
2019-04-06T16:52:57.953Z,41.83
2019-04-06T16:55:31.325Z,39.20
2019-04-06T16:58:17.831Z,43.00
2019-04-06T17:00:50.940Z,39.77
2019-04-06T17:03:23.559Z,38.93
2019-04-06T17:06:11.947Z,39.37
2019-04-06T17:08:58.790Z,37.97
2019-04-06T17:11:44.190Z,39.87
2019-04-06T17:14:14.734Z,39.53
2019-04-06T17:16:47.679Z,37.37
2019-04-06T17:19:30.550Z,45.43
2019-04-06T17:22:15.455Z,44.73
2019-04-06T17:24:51.162Z,48.13
2019-04-06T17:27:36.190Z,46.03
2019-04-06T17:30:11.340Z,45.07
2019-04-06T17:32:44.099Z,50.47
2019-04-06T17:35:14.150Z,46.70
2019-04-06T17:37:44.200Z,54.90
2019-04-06T17:40:14.486Z,45.67
2019-04-06T17:42:44.539Z,47.60
2019-04-06T17:45:20.609Z,47.90
2019-04-06T17:47:50.723Z,39.97
2019-04-06T17:50:37.644Z,45.47
2019-04-06T17:53:22.554Z,43.13
2019-04-06T17:56:08.166Z,48.70
2019-04-06T17:58:53.102Z,44.77
2019-04-06T18:01:41.450Z,45.57
2019-04-06T18:04:11.601Z,47.57
2019-04-06T18:06:41.622Z,55.57
2019-04-06T18:09:30.439Z,48.50
2019-04-06T18:12:00.826Z,53.47
2019-04-06T18:14:29.302Z,52.23
2019-04-06T18:16:58.279Z,45.30
2019-04-06T18:19:27.211Z,48.70
2019-04-06T18:21:55.676Z,47.50
2019-04-06T18:24:24.207Z,46.47
2019-04-06T18:26:52.612Z,44.00
2019-04-06T18:29:21.019Z,50.00
2019-04-06T18:32:00.366Z,46.90
2019-04-06T18:34:28.767Z,52.87
2019-04-06T18:36:59.000Z,53.93
2019-04-06T18:39:27.970Z,51.93
2019-04-06T18:41:56.443Z,52.23
2019-04-06T18:44:25.572Z,48.27
2019-04-06T18:46:54.102Z,50.33
2019-04-06T18:49:22.788Z,53.40
2019-04-06T18:51:51.665Z,51.87
2019-04-06T18:54:20.142Z,54.97
2019-04-06T18:56:48.559Z,56.43
2019-04-06T18:59:16.963Z,54.43
2019-04-06T19:01:45.878Z,54.47
2019-04-06T19:04:14.367Z,61.27
2019-04-06T19:06:43.181Z,54.03
2019-04-06T19:09:22.459Z,55.87
2019-04-06T19:11:52.880Z,60.90
2019-04-06T19:14:12.433Z,57.23
2019-04-06T19:16:41.076Z,62.63
2019-04-06T19:19:09.666Z,66.17
2019-04-06T19:21:38.074Z,62.20
2019-04-06T19:24:06.628Z,69.97
2019-04-06T19:26:37.284Z,73.40
2019-04-06T19:29:05.267Z,75.80
2019-04-06T19:31:33.670Z,72.00
2019-04-06T19:34:02.328Z,97.10
2019-04-06T19:36:30.782Z,114.20
2019-04-06T19:38:59.491Z,147.13
2019-04-06T19:41:28.026Z,135.30
2019-04-06T19:43:56.610Z,135.63
2019-04-06T19:46:25.118Z,146.30
2019-04-06T19:48:53.643Z,118.30
2019-04-06T19:51:22.645Z,121.50
2019-04-06T19:53:51.162Z,115.93
2019-04-06T19:56:20.083Z,95.33
2019-04-06T19:58:48.593Z,89.80
2019-04-06T20:01:17.500Z,99.17
2019-04-06T20:03:45.990Z,101.10
2019-04-06T20:06:14.518Z,95.07
2019-04-06T20:08:42.920Z,89.27
2019-04-06T20:11:11.326Z,97.10
2019-04-06T20:13:40.038Z,86.30
2019-04-06T20:16:08.431Z,91.47
2019-04-06T20:18:36.875Z,90.37
2019-04-06T20:21:06.014Z,89.23
2019-04-06T20:23:34.598Z,87.37
2019-04-06T20:26:03.416Z,78.23
2019-04-06T20:28:32.064Z,84.70
2019-04-06T20:31:00.647Z,75.50
2019-04-06T20:33:29.539Z,78.80
2019-04-06T20:35:58.660Z,80.33
2019-04-06T20:38:27.596Z,73.37
2019-04-06T20:40:56.236Z,70.13
2019-04-06T20:43:25.202Z,67.93
2019-04-06T20:45:53.608Z,67.17
2019-04-06T20:48:22.020Z,67.13
2019-04-06T20:50:51.212Z,64.90
2019-04-06T20:53:19.926Z,65.90
2019-04-06T20:55:48.679Z,65.93
2019-04-06T20:58:16.870Z,74.90
2019-04-06T21:00:45.807Z,69.97
2019-04-06T21:03:15.194Z,68.70
2019-04-06T21:05:44.138Z,69.03
2019-04-06T21:08:12.566Z,66.03
2019-04-06T21:10:40.970Z,69.67
2019-04-06T21:13:09.814Z,67.47
2019-04-06T21:15:38.569Z,68.87
2019-04-06T21:18:06.966Z,70.80
2019-04-06T21:20:35.573Z,68.87
2019-04-06T21:23:15.646Z,62.50
2019-04-06T21:25:44.135Z,65.93
2019-04-06T21:28:14.423Z,70.30
2019-04-06T21:30:43.172Z,69.57
2019-04-06T21:33:12.259Z,68.90
2019-04-06T21:35:40.806Z,68.30
2019-04-06T21:38:09.191Z,65.20
2019-04-06T21:40:37.606Z,62.43
2019-04-06T21:43:06.013Z,63.33
2019-04-06T21:45:34.453Z,59.13
2019-04-06T21:48:04.282Z,65.27
2019-04-06T21:50:33.122Z,61.37
2019-04-06T21:53:01.658Z,60.17
2019-04-06T21:55:30.090Z,56.30
2019-04-06T21:57:58.485Z,57.30
2019-04-06T22:00:38.537Z,63.07
2019-04-06T22:03:07.113Z,58.70
2019-04-06T22:05:36.229Z,52.53
2019-04-06T22:08:04.965Z,55.13
2019-04-06T22:10:33.475Z,54.33
2019-04-06T22:13:01.908Z,51.57
2019-04-06T22:15:30.518Z,50.30
2019-04-06T22:17:59.090Z,52.40
2019-04-06T22:20:28.059Z,51.43
2019-04-06T22:22:57.272Z,49.83
2019-04-06T22:25:25.790Z,46.87
2019-04-06T22:27:54.200Z,47.20
2019-04-06T22:30:22.525Z,39.80
2019-04-06T22:32:51.361Z,43.73
2019-04-06T22:35:20.435Z,41.53
2019-04-06T22:37:48.847Z,49.67
2019-04-06T22:40:18.115Z,46.67
2019-04-06T22:42:46.739Z,42.77
2019-04-06T22:45:17.503Z,45.77
2019-04-06T22:47:46.304Z,46.20
2019-04-06T22:50:15.359Z,44.97
2019-04-06T22:52:43.742Z,50.60
2019-04-06T22:55:12.802Z,47.70
2019-04-06T22:57:41.306Z,40.70
2019-04-06T23:00:12.434Z,42.87
2019-04-06T23:02:42.782Z,40.43
2019-04-06T23:05:24.685Z,38.17
2019-04-06T23:07:53.455Z,38.33
2019-04-06T23:10:21.988Z,38.63
2019-04-06T23:12:50.410Z,36.60
2019-04-06T23:15:18.830Z,38.03
2019-04-06T23:17:47.687Z,40.57
2019-04-06T23:20:16.299Z,39.23
2019-04-06T23:22:44.799Z,46.27
2019-04-06T23:25:13.419Z,44.17
2019-04-06T23:27:42.066Z,38.97
2019-04-06T23:30:11.005Z,38.30
2019-04-06T23:32:39.929Z,42.00
2019-04-06T23:35:08.467Z,40.63
2019-04-06T23:37:36.884Z,39.23
2019-04-06T23:40:08.369Z,41.20
2019-04-06T23:42:36.824Z,40.03
2019-04-06T23:45:06.934Z,39.10
2019-04-06T23:47:35.966Z,48.83
2019-04-06T23:50:06.620Z,41.87
2019-04-06T23:52:35.444Z,38.83
2019-04-06T23:55:08.354Z,40.67
2019-04-06T23:57:37.240Z,41.50
